createdAt,value
2022-09-16T00:00:43.770Z,99.90
2022-09-16T00:03:53.982Z,99.90
2022-09-16T00:06:30.674Z,99.90
2022-09-16T00:12:29.667Z,99.90
2022-09-16T00:15:15.270Z,99.90
2022-09-16T00:17:51.170Z,99.90
2022-09-16T00:59:19.224Z,99.90
2022-09-16T01:05:20.801Z,99.90
2022-09-16T01:07:52.573Z,99.90
2022-09-16T01:10:22.636Z,99.90
2022-09-16T01:12:53.824Z,99.90
2022-09-16T01:15:24.392Z,99.90
2022-09-16T01:17:51.152Z,99.90
2022-09-16T01:20:34.349Z,99.90
2022-09-16T01:27:47.925Z,99.90
2022-09-16T01:30:18.148Z,99.90
2022-09-16T01:35:49.790Z,99.90
2022-09-16T01:38:35.295Z,99.90
2022-09-16T01:41:25.509Z,99.90
2022-09-16T01:44:06.716Z,99.90
2022-09-16T01:46:42.730Z,99.90
2022-09-16T01:49:25.122Z,99.90
2022-09-16T01:52:01.186Z,99.90
2022-09-16T01:57:48.954Z,99.90
2022-09-16T02:00:15.998Z,99.90
2022-09-16T02:02:53.354Z,99.90
2022-09-16T02:05:27.896Z,99.90
2022-09-16T02:08:01.407Z,99.90
2022-09-16T02:10:36.200Z,99.90
2022-09-16T02:13:12.968Z,99.90
2022-09-16T02:15:42.174Z,99.90
2022-09-16T02:18:13.522Z,99.90
2022-09-16T02:20:45.118Z,99.90
2022-09-16T02:23:29.054Z,99.90
2022-09-16T02:25:56.537Z,99.90
2022-09-16T02:28:34.131Z,99.90
2022-09-16T02:31:07.486Z,99.90
2022-09-16T02:33:41.717Z,99.90
2022-09-16T02:36:10.271Z,99.90
2022-09-16T02:38:44.416Z,99.90
2022-09-16T02:51:17.265Z,99.90
2022-09-16T02:53:50.547Z,99.90
2022-09-16T02:56:37.939Z,99.90
2022-09-16T02:59:07.105Z,99.90
2022-09-16T03:01:41.592Z,99.90
2022-09-16T03:04:17.303Z,99.90
2022-09-16T03:06:44.632Z,99.90
2022-09-16T03:09:13.717Z,99.90
2022-09-16T03:24:48.676Z,99.90
2022-09-16T03:27:45.758Z,99.90
2022-09-16T03:30:19.096Z,99.90
2022-09-16T03:40:48.260Z,99.90
2022-09-16T03:43:16.672Z,99.90
2022-09-16T03:45:44.420Z,99.90
2022-09-16T03:48:13.508Z,99.90
2022-09-16T03:50:40.937Z,99.90
2022-09-16T03:53:09.425Z,99.90
2022-09-16T03:55:36.339Z,99.90
2022-09-16T03:58:06.169Z,99.90
2022-09-16T04:08:11.066Z,99.90
2022-09-16T04:10:37.911Z,99.90
2022-09-16T04:13:05.128Z,99.90
2022-09-16T04:15:44.387Z,99.90
2022-09-16T04:18:11.886Z,99.90
2022-09-16T04:20:38.963Z,99.90
2022-09-16T04:23:05.911Z,99.90
2022-09-16T04:41:54.282Z,99.90
2022-09-16T04:44:21.230Z,99.90
2022-09-16T04:46:48.112Z,99.90
2022-09-16T04:49:15.490Z,99.90
2022-09-16T04:51:42.265Z,99.90
2022-09-16T04:54:09.663Z,99.90
2022-09-16T04:56:36.518Z,99.90
2022-09-16T04:59:05.660Z,99.90
2022-09-16T05:01:35.354Z,99.90
2022-09-16T05:04:05.192Z,99.90
2022-09-16T05:06:35.174Z,99.90
2022-09-16T05:09:04.065Z,99.90
2022-09-16T05:11:33.903Z,99.90
2022-09-16T05:14:02.085Z,99.90
2022-09-16T05:16:29.562Z,99.90
2022-09-16T05:18:58.777Z,99.90
2022-09-16T05:21:28.289Z,99.90
2022-09-16T05:23:59.691Z,99.90
2022-09-16T05:26:28.987Z,99.90
2022-09-16T05:28:55.916Z,99.90
2022-09-16T05:31:30.775Z,99.90
2022-09-16T05:33:58.568Z,99.90
2022-09-16T05:36:27.683Z,99.90
2022-09-16T05:39:22.124Z,99.90
2022-09-16T05:41:49.739Z,99.90
2022-09-16T05:44:29.121Z,99.90
2022-09-16T05:46:56.790Z,99.90
2022-09-16T05:49:23.962Z,99.90
2022-09-16T05:51:51.710Z,99.90
2022-09-16T05:54:19.456Z,99.90
2022-09-16T05:56:47.388Z,99.90
2022-09-16T05:59:18.844Z,99.90
2022-09-16T06:04:35.802Z,99.90
2022-09-16T06:07:03.663Z,99.90
2022-09-16T06:09:30.932Z,99.90
2022-09-16T06:12:01.925Z,99.90
2022-09-16T06:14:30.194Z,99.90
2022-09-16T06:16:57.226Z,99.90
2022-09-16T06:19:24.110Z,99.90
2022-09-16T06:21:51.030Z,99.90
2022-09-16T06:24:19.294Z,99.90
2022-09-16T06:26:47.678Z,99.90
2022-09-16T06:29:15.875Z,99.90
2022-09-16T06:31:43.088Z,99.90
2022-09-16T06:34:15.318Z,99.90
2022-09-16T06:36:45.155Z,99.90
2022-09-16T06:39:14.021Z,99.90
2022-09-16T06:41:40.963Z,99.90
2022-09-16T06:44:08.214Z,99.90
2022-09-16T06:46:35.100Z,99.90
2022-09-16T06:49:05.697Z,99.90
2022-09-16T06:51:33.567Z,99.90
2022-09-16T06:54:06.409Z,99.90
2022-09-16T06:56:37.615Z,99.90
2022-09-16T06:59:04.576Z,99.90
2022-09-16T07:01:32.340Z,99.90
2022-09-16T07:04:02.165Z,99.90
2022-09-16T07:06:52.224Z,99.90
2022-09-16T07:09:17.646Z,99.90
2022-09-16T07:11:44.659Z,99.90
2022-09-16T07:14:11.496Z,99.90
2022-09-16T07:16:38.449Z,99.90
2022-09-16T07:19:05.978Z,99.90
2022-09-16T07:21:32.807Z,99.90
2022-09-16T07:24:01.718Z,99.90
2022-09-16T07:26:34.229Z,99.90
2022-09-16T07:29:03.490Z,99.90
2022-09-16T07:31:37.569Z,99.90
2022-09-16T07:34:06.373Z,99.90
2022-09-16T07:36:51.395Z,99.90
2022-09-16T07:39:20.452Z,99.90
2022-09-16T07:41:51.387Z,99.90
2022-09-16T07:44:20.466Z,99.90
2022-09-16T07:46:48.447Z,99.90
2022-09-16T07:49:15.599Z,99.90
2022-09-16T07:51:43.516Z,99.90
2022-09-16T07:54:13.755Z,99.90
2022-09-16T07:56:42.106Z,99.90
2022-09-16T07:59:15.828Z,99.90
2022-09-16T08:01:45.704Z,99.90
2022-09-16T08:04:12.652Z,99.90
2022-09-16T08:06:40.203Z,99.90
2022-09-16T08:09:15.521Z,99.90
2022-09-16T08:11:54.190Z,99.90
2022-09-16T08:14:21.155Z,99.90
2022-09-16T08:16:51.452Z,99.90
2022-09-16T08:19:20.489Z,99.90
2022-09-16T08:21:47.329Z,99.90
2022-09-16T08:24:14.392Z,99.90
2022-09-16T08:26:41.313Z,99.90
2022-09-16T08:29:09.691Z,99.90
2022-09-16T08:31:37.821Z,99.90
2022-09-16T08:34:04.961Z,99.90
2022-09-16T08:36:33.567Z,99.90
2022-09-16T08:39:01.221Z,99.90
2022-09-16T08:41:49.739Z,99.90
2022-09-16T08:44:36.855Z,99.90
2022-09-16T08:47:43.768Z,99.90
2022-09-16T08:50:16.604Z,99.90
2022-09-16T08:52:45.506Z,99.90
2022-09-16T08:55:18.552Z,99.90
2022-09-16T08:58:01.302Z,99.90
2022-09-16T09:00:28.330Z,99.90
2022-09-16T09:03:02.625Z,99.90
2022-09-16T09:05:40.272Z,99.90
2022-09-16T09:08:44.909Z,99.90
2022-09-16T09:11:51.130Z,99.90
2022-09-16T09:14:53.003Z,99.90
2022-09-16T09:17:23.220Z,99.90
2022-09-16T09:19:55.941Z,99.90
2022-09-16T09:22:25.336Z,99.90
2022-09-16T09:25:30.277Z,99.90
2022-09-16T09:28:24.530Z,99.90
2022-09-16T09:31:10.719Z,99.90
2022-09-16T09:33:55.414Z,99.90
2022-09-16T09:36:52.897Z,99.90
2022-09-16T09:39:28.761Z,99.90
2022-09-16T09:42:21.250Z,99.90
2022-09-16T09:44:48.253Z,99.90
2022-09-16T09:47:32.899Z,99.90
2022-09-16T09:50:13.093Z,99.90
2022-09-16T09:52:53.013Z,99.90
2022-09-16T09:55:22.167Z,99.90
2022-09-16T09:57:58.232Z,99.90
2022-09-16T10:00:25.086Z,99.90
2022-09-16T10:02:51.928Z,99.90
2022-09-16T10:05:27.744Z,99.90
2022-09-16T10:08:38.781Z,99.90
2022-09-16T10:11:23.727Z,99.90
2022-09-16T10:13:52.812Z,99.90
2022-09-16T10:16:22.804Z,99.90
2022-09-16T10:19:20.947Z,99.90
2022-09-16T10:21:53.351Z,99.90
2022-09-16T10:24:35.766Z,99.90
2022-09-16T10:27:22.362Z,99.90
2022-09-16T10:30:15.391Z,99.90
2022-09-16T10:33:04.556Z,99.90
2022-09-16T10:35:34.251Z,99.90
2022-09-16T10:38:13.061Z,99.90
2022-09-16T10:41:23.090Z,99.90
2022-09-16T10:43:59.723Z,99.90
2022-09-16T10:46:27.812Z,99.90
2022-09-16T10:49:00.634Z,99.90
2022-09-16T10:51:29.861Z,99.90
2022-09-16T10:53:58.889Z,99.90
2022-09-16T10:56:29.662Z,99.90
2022-09-16T10:59:06.463Z,99.90
2022-09-16T11:02:09.948Z,99.90
2022-09-16T11:05:25.443Z,99.90
2022-09-16T11:07:56.137Z,99.90
2022-09-16T11:10:48.743Z,99.90
2022-09-16T11:13:24.410Z,99.50
2022-09-16T11:16:08.209Z,97.30
2022-09-16T11:18:43.761Z,97.70
2022-09-16T11:21:41.143Z,98.60
2022-09-16T11:24:27.429Z,96.90
2022-09-16T11:27:17.818Z,96.90
2022-09-16T11:30:02.475Z,94.70
2022-09-16T11:32:37.106Z,95.40
2022-09-16T11:35:32.393Z,95.30
2022-09-16T11:38:24.068Z,96.40
2022-09-16T11:41:06.099Z,97.10
2022-09-16T11:44:27.334Z,98.90
2022-09-16T11:47:12.559Z,99.40
2022-09-16T11:50:07.846Z,98.70
2022-09-16T11:53:07.366Z,98.40
2022-09-16T11:55:52.846Z,97.60
2022-09-16T11:58:51.048Z,95.90
2022-09-16T12:01:35.298Z,95.80
2022-09-16T12:04:28.913Z,97.70
2022-09-16T12:07:29.471Z,98.40
2022-09-16T12:10:04.632Z,96.80
2022-09-16T12:12:42.405Z,94.90
2022-09-16T12:15:20.463Z,93.10
2022-09-16T12:18:24.334Z,94.60
2022-09-16T12:21:04.174Z,93.90
2022-09-16T12:23:36.165Z,93.40
2022-09-16T12:26:19.778Z,92.30
2022-09-16T12:29:06.580Z,90.10
2022-09-16T12:31:41.966Z,87.80
2022-09-16T12:34:16.859Z,88.50
2022-09-16T12:36:48.605Z,87.50
2022-09-16T12:39:15.775Z,88.40
2022-09-16T12:42:20.132Z,90.90
2022-09-16T12:45:02.266Z,93.00
2022-09-16T12:47:55.141Z,92.50
2022-09-16T12:50:47.253Z,91.50
2022-09-16T12:53:40.543Z,92.30
2022-09-16T12:56:39.028Z,88.90
2022-09-16T12:59:12.190Z,89.40
2022-09-16T13:01:46.010Z,90.40
2022-09-16T13:04:20.809Z,91.00
2022-09-16T13:06:54.254Z,92.40
2022-09-16T13:09:25.856Z,91.80
2022-09-16T13:12:36.717Z,92.40
2022-09-16T13:14:58.259Z,92.80
2022-09-16T13:17:38.322Z,93.70
2022-09-16T13:20:16.710Z,94.20
2022-09-16T13:22:55.500Z,94.90
2022-09-16T13:25:45.139Z,95.70
2022-09-16T13:28:28.159Z,96.10
2022-09-16T13:31:09.986Z,96.20
2022-09-16T13:33:38.422Z,95.70
2022-09-16T13:36:23.219Z,95.30
2022-09-16T13:38:52.351Z,95.80
2022-09-16T13:41:38.771Z,95.20
2022-09-16T13:44:30.602Z,95.30
2022-09-16T13:47:09.528Z,95.20
2022-09-16T13:49:49.330Z,94.60
2022-09-16T13:52:30.718Z,93.90
2022-09-16T13:55:10.600Z,94.20
2022-09-16T13:58:32.298Z,94.30
2022-09-16T14:01:28.373Z,94.80
2022-09-16T14:04:26.104Z,95.00
2022-09-16T14:07:22.224Z,94.80
2022-09-16T14:10:07.335Z,95.60
2022-09-16T14:12:52.859Z,95.90
2022-09-16T14:15:21.167Z,95.60
2022-09-16T14:17:54.241Z,95.40
2022-09-16T14:20:24.161Z,95.60
2022-09-16T14:23:23.810Z,95.90
2022-09-16T14:25:53.482Z,96.10
2022-09-16T14:28:24.022Z,95.90
2022-09-16T14:30:53.593Z,96.50
2022-09-16T14:33:28.718Z,96.70
2022-09-16T14:35:56.818Z,97.30
2022-09-16T14:38:46.769Z,97.20
2022-09-16T14:41:23.323Z,97.40
2022-09-16T14:43:51.256Z,97.80
2022-09-16T14:46:18.350Z,97.60
2022-09-16T14:48:45.453Z,97.50
2022-09-16T14:51:26.611Z,97.60
2022-09-16T14:54:12.325Z,96.70
2022-09-16T14:56:40.144Z,97.10
2022-09-16T14:59:12.145Z,96.70
2022-09-16T15:01:40.075Z,96.90
2022-09-16T15:04:14.710Z,97.20
2022-09-16T15:06:48.116Z,97.60
2022-09-16T15:09:48.324Z,97.80
2022-09-16T15:12:32.007Z,98.30
2022-09-16T15:15:07.039Z,98.80
2022-09-16T15:17:34.154Z,99.00
2022-09-16T15:20:01.059Z,99.40
2022-09-16T15:22:28.664Z,99.50
2022-09-16T15:24:59.436Z,99.60
2022-09-16T15:27:29.218Z,99.90
2022-09-16T15:30:01.229Z,99.90
2022-09-16T15:32:31.852Z,99.90
2022-09-16T15:35:21.192Z,99.90
2022-09-16T15:37:48.380Z,99.90
2022-09-16T15:40:26.823Z,99.90
2022-09-16T15:43:16.973Z,99.90
2022-09-16T15:45:46.168Z,99.90
2022-09-16T15:48:23.463Z,99.90
2022-09-16T15:50:57.778Z,99.90
2022-09-16T15:53:30.766Z,99.90
2022-09-16T16:53:02.512Z,99.90
2022-09-16T17:33:59.249Z,99.90
2022-09-16T17:42:02.920Z,99.90
2022-09-16T17:44:29.884Z,99.90
2022-09-16T17:46:56.658Z,99.90
2022-09-16T17:49:24.415Z,99.90
2022-09-16T17:51:54.462Z,99.90
2022-09-16T17:54:22.184Z,99.90
2022-09-16T17:56:49.254Z,99.90
2022-09-16T17:59:18.064Z,99.90
2022-09-16T18:01:45.383Z,99.90
2022-09-16T18:04:12.941Z,99.90
2022-09-16T18:06:45.688Z,99.90
2022-09-16T18:09:13.595Z,99.90
2022-09-16T18:11:40.554Z,99.90
2022-09-16T18:14:11.033Z,99.90
2022-09-16T18:16:43.290Z,99.90
2022-09-16T18:19:10.595Z,99.90
2022-09-16T18:21:38.395Z,99.90
2022-09-16T18:24:11.251Z,99.90
2022-09-16T18:26:38.470Z,99.90
2022-09-16T18:29:19.708Z,99.90
2022-09-16T18:31:49.188Z,99.90
2022-09-16T18:34:22.823Z,99.90
2022-09-16T18:36:49.755Z,99.90
2022-09-16T18:39:17.508Z,99.90
2022-09-16T18:41:45.540Z,99.90
2022-09-16T18:44:19.782Z,99.90
2022-09-16T18:46:47.554Z,99.90
2022-09-16T18:49:16.339Z,99.90
2022-09-16T18:51:51.759Z,99.90
2022-09-16T18:54:28.706Z,99.90
2022-09-16T18:56:57.490Z,99.90
2022-09-16T18:59:28.453Z,99.90
2022-09-16T19:02:01.361Z,99.90
2022-09-16T19:04:31.421Z,99.90
2022-09-16T19:07:06.199Z,99.90
2022-09-16T19:09:33.571Z,99.90
2022-09-16T19:12:01.637Z,99.90
2022-09-16T19:14:28.968Z,99.90
2022-09-16T19:16:55.804Z,99.90
2022-09-16T19:19:23.466Z,99.90
2022-09-16T19:21:50.541Z,99.90
2022-09-16T19:24:23.613Z,99.90
2022-09-16T19:26:52.996Z,99.90
2022-09-16T19:29:20.423Z,99.90
2022-09-16T19:31:51.779Z,99.90
2022-09-16T19:34:19.492Z,99.90
2022-09-16T19:36:46.306Z,99.90
2022-09-16T19:39:13.748Z,99.90
2022-09-16T19:41:47.122Z,99.90
2022-09-16T19:44:16.702Z,99.90
2022-09-16T19:46:47.041Z,99.90
2022-09-16T19:49:26.961Z,99.90
2022-09-16T19:51:56.954Z,99.90
2022-09-16T19:54:30.675Z,99.90
2022-09-16T19:56:57.651Z,99.90
2022-09-16T19:59:24.422Z,99.90
2022-09-16T20:01:51.340Z,99.90
2022-09-16T20:04:20.574Z,99.90
2022-09-16T20:06:48.343Z,99.90
2022-09-16T20:09:17.579Z,99.90
2022-09-16T20:11:48.550Z,99.90
2022-09-16T20:14:21.349Z,99.90
2022-09-16T20:16:50.330Z,99.90
2022-09-16T20:19:19.964Z,99.90
2022-09-16T20:21:47.307Z,99.90
2022-09-16T20:24:22.973Z,99.90
2022-09-16T20:26:54.661Z,99.90
2022-09-16T20:29:21.610Z,99.90
2022-09-16T20:31:50.224Z,99.90
2022-09-16T20:34:17.583Z,99.90
2022-09-16T20:36:45.969Z,99.90
2022-09-16T20:39:13.405Z,99.90
2022-09-16T20:41:40.791Z,99.90
2022-09-16T20:44:08.119Z,99.90
2022-09-16T20:46:36.842Z,99.90
2022-09-16T20:49:06.556Z,99.90
2022-09-16T20:51:34.393Z,99.90
2022-09-16T20:54:07.313Z,99.90
2022-09-16T20:56:39.483Z,99.90
2022-09-16T20:59:17.713Z,99.90
2022-09-16T21:01:44.950Z,99.90
2022-09-16T21:04:14.788Z,99.90
2022-09-16T21:06:41.990Z,99.90
2022-09-16T21:09:11.448Z,99.90
2022-09-16T21:11:42.865Z,99.90
2022-09-16T21:14:10.038Z,99.90
2022-09-16T21:16:38.431Z,99.90
2022-09-16T21:19:09.787Z,99.90
2022-09-16T21:21:39.023Z,99.90
2022-09-16T21:24:07.433Z,99.90
2022-09-16T21:26:36.039Z,99.90
2022-09-16T21:29:06.230Z,99.90
2022-09-16T21:31:34.258Z,99.90
2022-09-16T21:34:05.054Z,99.90
2022-09-16T21:36:33.682Z,99.90
2022-09-16T21:39:01.499Z,99.90
2022-09-16T21:41:28.514Z,99.90
2022-09-16T21:43:58.199Z,99.90
2022-09-16T21:46:37.892Z,99.90
2022-09-16T21:49:05.095Z,99.90
2022-09-16T21:51:36.218Z,99.90
2022-09-16T21:54:05.199Z,99.90
2022-09-16T21:56:32.251Z,99.90
2022-09-16T21:58:59.413Z,99.90
2022-09-16T22:01:30.098Z,99.90
2022-09-16T22:04:04.942Z,99.90
2022-09-16T22:06:32.238Z,99.90
2022-09-16T22:09:01.664Z,99.90
2022-09-16T22:11:31.463Z,99.90
2022-09-16T22:14:02.438Z,99.90
2022-09-16T22:16:31.733Z,99.90
2022-09-16T22:19:01.661Z,99.90
2022-09-16T22:21:31.333Z,99.90
2022-09-16T22:24:07.684Z,99.90
2022-09-16T22:26:35.376Z,99.90
2022-09-16T22:29:02.319Z,99.90
2022-09-16T22:31:31.664Z,99.90
2022-09-16T22:34:00.778Z,99.90
2022-09-16T22:36:30.378Z,99.90
2022-09-16T22:39:24.421Z,99.90
2022-09-16T22:41:51.230Z,99.90
2022-09-16T22:44:18.100Z,99.90
2022-09-16T22:46:47.172Z,99.90
2022-09-16T22:49:15.164Z,99.90
2022-09-16T22:51:42.439Z,99.90
2022-09-16T22:54:11.010Z,99.90
2022-09-16T22:56:37.899Z,99.90
2022-09-16T22:59:06.438Z,99.90
2022-09-16T23:01:39.309Z,99.90
2022-09-16T23:04:08.220Z,99.90
2022-09-16T23:06:37.155Z,99.90
2022-09-16T23:09:05.194Z,99.90
2022-09-16T23:11:34.448Z,99.90
2022-09-16T23:14:01.805Z,99.90
2022-09-16T23:16:31.267Z,99.90
2022-09-16T23:19:00.827Z,99.90
2022-09-16T23:21:28.425Z,99.90
2022-09-16T23:24:05.681Z,99.90
2022-09-16T23:26:37.444Z,99.90
2022-09-16T23:29:08.389Z,99.90
2022-09-16T23:31:39.689Z,99.90
2022-09-16T23:34:12.342Z,99.90
2022-09-16T23:36:39.431Z,99.90
2022-09-16T23:39:07.479Z,99.90
2022-09-16T23:41:35.504Z,99.90
2022-09-16T23:44:02.728Z,99.90
2022-09-16T23:46:31.158Z,99.90
2022-09-16T23:48:58.998Z,99.90
2022-09-16T23:51:38.820Z,99.90
2022-09-16T23:54:05.643Z,99.90
2022-09-16T23:56:32.781Z,99.90
2022-09-16T23:59:00.967Z,99.90
